Time;durP1;ratioP1;P1;durP2;ratioP2;P2;SDS_P1;SDS_P2;PMS_P1;PMS_P2;Temp;Humidity;BMP_temperature;BMP_pressure;BME280_temperature;BME280_humidity;BME280_pressure;Samples;Min_cycle;Max_cycle;Signal;HPM_P1;HPM_P2
2023/07/27 00:02:16;;;;;;;4.13;2.20;;;;;;;23.13;48.02;100951.53;4981474;28;20061;-74
2023/07/27 00:04:42;;;;;;;4.45;2.42;;;;;;;23.13;47.66;100952.38;4981468;28;20044;-72
2023/07/27 00:07:07;;;;;;;4.70;2.70;;;;;;;23.13;47.91;100949.72;4982393;28;20031;-74
2023/07/27 00:09:32;;;;;;;5.40;2.70;;;;;;;23.13;48.26;100943.56;4981378;28;20069;-73
2023/07/27 00:11:57;;;;;;;4.85;2.55;;;;;;;23.09;47.81;100936.91;4963252;28;20062;-74
2023/07/27 00:14:23;;;;;;;4.57;2.67;;;;;;;23.13;48.00;100948.88;4981114;28;20039;-73
2023/07/27 00:16:48;;;;;;;5.85;2.72;;;;;;;23.12;48.05;100944.56;4980411;28;21355;-73
2023/07/27 00:19:13;;;;;;;7.60;3.00;;;;;;;23.13;48.15;100940.91;4981121;28;20030;-73
2023/07/27 00:21:39;;;;;;;4.65;2.45;;;;;;;23.13;47.80;100932.91;4980660;28;21531;-75
2023/07/27 00:24:04;;;;;;;4.50;2.20;;;;;;;23.11;47.98;100940.22;4962922;28;20077;-73
2023/07/27 00:26:30;;;;;;;4.38;2.40;;;;;;;23.11;48.08;100932.25;4981022;28;20093;-73
2023/07/27 00:28:55;;;;;;;5.07;2.60;;;;;;;23.10;48.15;100931.44;4980529;28;20038;-76
2023/07/27 00:31:20;;;;;;;4.88;2.50;;;;;;;23.09;47.98;100935.06;4980875;28;20092;-76
2023/07/27 00:33:46;;;;;;;4.75;2.58;;;;;;;23.11;48.51;100932.25;4980463;28;20463;-73
2023/07/27 00:36:11;;;;;;;4.35;2.50;;;;;;;23.10;48.11;100927.94;4962913;28;20040;-74
2023/07/27 00:38:36;;;;;;;5.22;2.70;;;;;;;23.08;48.27;100930.75;4980616;28;20037;-76
2023/07/27 00:41:01;;;;;;;5.50;2.70;;;;;;;23.09;48.09;100926.25;4980683;28;20046;-75
2023/07/27 00:43:27;;;;;;;6.03;2.78;;;;;;;23.08;47.92;100917.47;4979604;28;20608;-73
2023/07/27 00:45:53;;;;;;;5.43;2.50;;;;;;;23.08;48.52;100917.47;4979873;28;20096;-73
2023/07/27 00:48:20;;;;;;;5.75;2.58;;;;;;;23.08;48.26;100909.50;4981011;28;20048;-74
2023/07/27 00:50:45;;;;;;;4.60;2.50;;;;;;;23.08;48.38;100900.66;4961935;28;20400;-75
2023/07/27 00:53:13;;;;;;;5.10;2.60;;;;;;;23.06;48.33;100895.47;4981034;28;20030;-73
2023/07/27 00:55:38;;;;;;;4.93;2.80;;;;;;;23.07;48.17;100896.31;4980264;28;20034;-77
2023/07/27 00:58:04;;;;;;;4.35;2.33;;;;;;;23.05;48.23;100882.34;4979891;28;20144;-73
2023/07/27 01:00:30;;;;;;;4.50;2.30;;;;;;;23.07;48.21;100885.69;4980864;28;20116;-73
2023/07/27 01:02:56;;;;;;;5.63;2.28;;;;;;;23.05;48.38;100882.34;4980130;28;20765;-76
2023/07/27 01:05:22;;;;;;;4.50;2.35;;;;;;;23.05;48.11;100877.88;4979966;28;20037;-73
2023/07/27 01:07:47;;;;;;;6.75;2.60;;;;;;;23.05;48.07;100875.22;4980611;28;20542;-73
2023/07/27 01:10:13;;;;;;;5.10;2.33;;;;;;;23.05;48.27;100869.06;4980447;28;20374;-74
2023/07/27 01:12:48;;;;;;;5.53;2.90;;;;;;;23.03;48.43;100865.72;4979734;28;20291;-73
2023/07/27 01:15:18;;;;;;;4.45;2.35;;;;;;;23.04;48.22;100862.09;4962883;28;20034;-73
2023/07/27 01:18:01;;;;;;;4.68;2.50;;;;;;;23.03;48.51;100858.56;4980198;28;20420;-74
2023/07/27 01:20:26;;;;;;;5.00;2.50;;;;;;;23.03;48.62;100855.91;4980146;28;20034;-73
2023/07/27 01:23:07;;;;;;;4.60;2.30;;;;;;;23.03;48.56;100858.56;4980457;28;20037;-76
2023/07/27 01:25:56;;;;;;;6.03;2.75;;;;;;;23.03;48.42;100863.06;4979828;28;20279;-76
2023/07/27 01:28:47;;;;;;;4.40;2.15;;;;;;;23.01;48.72;100848.09;4980304;28;20546;-73
2023/07/27 01:31:20;;;;;;;5.15;2.70;;;;;;;23.01;48.83;100840.13;4961960;28;20030;-73
2023/07/27 01:33:55;;;;;;;5.40;2.80;;;;;;;22.99;48.61;100839.47;4979193;28;21222;-73
2023/07/27 01:36:26;;;;;;;5.28;2.58;;;;;;;22.99;48.42;100835.97;4979902;28;20034;-74
2023/07/27 01:38:54;;;;;;;4.90;2.35;;;;;;;23.00;48.93;100838.47;4979486;28;20081;-73
2023/07/27 01:41:22;;;;;;;5.55;2.40;;;;;;;23.00;48.67;100829.66;4979384;28;20038;-77
2023/07/27 01:43:48;;;;;;;4.57;2.38;;;;;;;22.99;48.87;100823.50;4980207;28;20110;-74
2023/07/27 01:46:15;;;;;;;4.68;2.40;;;;;;;22.99;48.75;100817.38;4980618;28;20045;-73
2023/07/27 01:48:42;;;;;;;4.43;2.30;;;;;;;22.98;48.96;100816.53;4979413;28;20128;-74
2023/07/27 01:51:10;;;;;;;5.03;2.38;;;;;;;22.97;48.56;100814.88;4980498;28;20038;-76
2023/07/27 01:53:36;;;;;;;5.00;2.63;;;;;;;22.98;48.94;100816.53;4979961;28;20630;-74
2023/07/27 01:56:06;;;;;;;5.20;2.40;;;;;;;22.96;48.61;100805.22;4984394;28;20038;-73
2023/07/27 01:58:35;;;;;;;5.10;2.58;;;;;;;22.96;48.81;100802.56;4983982;28;20026;-73
2023/07/27 02:01:01;;;;;;;5.70;2.65;;;;;;;22.98;48.97;100802.41;4983186;28;20065;-76
2023/07/27 02:03:26;;;;;;;4.53;2.25;;;;;;;22.98;49.12;100803.22;4966485;28;21229;-72
2023/07/27 02:05:51;;;;;;;4.57;2.30;;;;;;;22.97;49.02;100782.97;4983794;28;20145;-73
2023/07/27 02:08:17;;;;;;;4.18;2.25;;;;;;;22.97;49.08;100790.97;4982632;28;20026;-73
2023/07/27 02:10:51;;;;;;;4.40;2.13;;;;;;;22.97;49.19;100774.16;4983218;28;20049;-73
2023/07/27 02:13:45;;;;;;;4.63;2.38;;;;;;;22.96;48.82;100768.03;4983944;28;20442;-73
2023/07/27 02:16:23;;;;;;;4.28;2.13;;;;;;;22.97;48.73;100768.84;4982658;28;20026;-72
2023/07/27 02:18:50;;;;;;;5.15;2.30;;;;;;;22.98;48.93;100759.88;4983400;28;20038;-73
2023/07/27 02:21:17;;;;;;;4.65;2.30;;;;;;;22.96;48.89;100756.56;4983607;28;20045;-72
2023/07/27 02:23:43;;;;;;;4.47;2.50;;;;;;;22.94;49.02;100754.06;4982246;28;20031;-73
2023/07/27 02:26:09;;;;;;;6.05;2.30;;;;;;;22.96;49.32;100748.59;4983004;28;20036;-76
2023/07/27 02:28:34;;;;;;;4.97;2.20;;;;;;;22.94;48.87;100748.75;4983410;28;20039;-76
2023/07/27 02:30:59;;;;;;;5.57;2.40;;;;;;;22.95;49.04;100736.28;4982675;28;20057;-73
2023/07/27 02:33:24;;;;;;;5.53;2.40;;;;;;;22.92;48.88;100734.81;4983536;28;20356;-75
2023/07/27 02:35:51;;;;;;;4.75;2.28;;;;;;;22.92;48.87;100718.00;4981252;28;20394;-76
2023/07/27 02:38:16;;;;;;;4.38;2.20;;;;;;;22.94;49.35;100723.97;4983283;28;20064;-73
2023/07/27 02:40:42;;;;;;;4.88;2.25;;;;;;;22.95;49.12;100712.38;4983023;28;20503;-72
2023/07/27 02:43:07;;;;;;;5.35;2.72;;;;;;;22.93;49.24;100717.03;4982522;28;20092;-73
2023/07/27 02:45:33;;;;;;;4.18;2.30;;;;;;;22.93;48.95;100703.72;4982778;28;20026;-73
2023/07/27 02:47:58;;;;;;;4.45;2.33;;;;;;;22.92;49.41;100705.56;4983063;28;20133;-73
2023/07/27 02:50:23;;;;;;;4.78;2.45;;;;;;;22.91;49.44;100695.09;4982140;28;20038;-73
2023/07/27 02:52:49;;;;;;;4.70;2.20;;;;;;;22.92;49.21;100700.25;4982781;28;20030;-73
2023/07/27 02:55:14;;;;;;;4.30;2.38;;;;;;;22.93;49.09;100698.41;4982757;28;20034;-73
2023/07/27 02:57:40;;;;;;;5.82;2.53;;;;;;;22.91;48.78;100695.94;4981780;28;20038;-74
2023/07/27 03:00:08;;;;;;;4.32;1.90;;;;;;;22.91;49.04;100693.25;4982808;28;20038;-73
2023/07/27 03:02:33;;;;;;;4.63;2.33;;;;;;;22.92;49.04;100694.09;4982611;28;20046;-73
2023/07/27 03:04:59;;;;;;;4.78;2.45;;;;;;;22.92;49.09;100691.44;4980657;28;20034;-73
2023/07/27 03:07:25;;;;;;;4.70;2.55;;;;;;;22.91;49.47;100687.13;4982437;28;20034;-73
2023/07/27 03:09:51;;;;;;;4.72;2.50;;;;;;;22.91;49.09;100679.16;4982419;28;20042;-73
2023/07/27 03:12:16;;;;;;;5.38;2.30;;;;;;;22.92;49.47;100670.19;4981413;28;20030;-73
2023/07/27 03:14:41;;;;;;;5.05;2.28;;;;;;;22.90;49.38;100665.03;4982229;28;20085;-75
2023/07/27 03:17:08;;;;;;;5.00;2.42;;;;;;;22.89;49.24;100667.84;4964627;28;20034;-73
2023/07/27 03:19:33;;;;;;;4.88;2.25;;;;;;;22.89;49.16;100660.72;4981867;28;20065;-73
2023/07/27 03:21:59;;;;;;;4.78;2.17;;;;;;;22.90;49.32;100651.72;4981634;28;20503;-75
2023/07/27 03:24:24;;;;;;;4.63;2.30;;;;;;;22.89;49.32;100641.25;4982377;28;20038;-73
2023/07/27 03:26:49;;;;;;;4.50;2.20;;;;;;;22.89;49.57;100638.59;4980870;28;20562;-75
2023/07/27 03:29:15;;;;;;;4.50;2.33;;;;;;;22.88;49.50;100637.78;4982875;28;20480;-76
2023/07/27 03:31:40;;;;;;;5.13;2.40;;;;;;;22.88;49.53;100632.47;4981836;28;20101;-73
2023/07/27 03:34:05;;;;;;;5.80;2.80;;;;;;;22.88;49.23;100623.69;4982135;28;20037;-76
2023/07/27 03:36:31;;;;;;;4.20;2.15;;;;;;;22.88;49.04;100616.53;4982075;28;20375;-73
2023/07/27 03:38:56;;;;;;;5.03;2.25;;;;;;;22.89;49.53;100612.03;4981748;28;20109;-76
2023/07/27 03:41:21;;;;;;;4.20;2.17;;;;;;;22.87;49.63;100593.59;4981112;28;20038;-73
2023/07/27 03:43:47;;;;;;;4.57;2.30;;;;;;;22.87;49.54;100590.94;4981468;28;20698;-76
2023/07/27 03:46:12;;;;;;;5.47;2.08;;;;;;;22.88;49.46;100578.50;4980954;28;20492;-73
2023/07/27 03:48:37;;;;;;;5.00;2.45;;;;;;;22.87;49.81;100582.97;4981311;28;20038;-75
2023/07/27 03:51:03;;;;;;;5.25;2.25;;;;;;;22.89;49.65;100572.19;4981450;28;20062;-74
2023/07/27 03:53:29;;;;;;;4.65;2.40;;;;;;;22.88;49.79;100573.19;4981078;28;20049;-74
2023/07/27 03:55:55;;;;;;;4.68;2.50;;;;;;;22.86;49.67;100570.69;4981417;28;20030;-72
2023/07/27 03:58:20;;;;;;;4.45;2.30;;;;;;;22.87;49.44;100566.22;4981176;28;20034;-73
2023/07/27 04:00:45;;;;;;;4.03;2.00;;;;;;;22.86;49.46;100565.38;4980864;28;20076;-76
2023/07/27 04:03:11;;;;;;;4.87;2.40;;;;;;;22.86;49.65;100551.25;4981611;28;20384;-72
2023/07/27 04:05:36;;;;;;;5.07;2.40;;;;;;;22.86;49.47;100557.41;4981599;28;20260;-76
2023/07/27 04:08:01;;;;;;;4.97;2.28;;;;;;;22.86;49.57;100553.91;4980593;28;20745;-73
2023/07/27 04:10:29;;;;;;;3.80;2.00;;;;;;;22.85;49.36;100557.56;4980564;28;20055;-75
2023/07/27 04:12:54;;;;;;;4.10;2.28;;;;;;;22.86;49.44;100562.72;4981133;28;20387;-72
2023/07/27 04:15:20;;;;;;;5.40;2.13;;;;;;;22.84;49.49;100551.41;4980217;28;20092;-76
2023/07/27 04:17:45;;;;;;;4.10;2.28;;;;;;;22.84;49.83;100551.41;4979790;28;20030;-73
2023/07/27 04:20:11;;;;;;;4.50;2.28;;;;;;;22.86;49.61;100545.94;4981344;28;20065;-73
2023/07/27 04:22:36;;;;;;;4.40;2.00;;;;;;;22.85;49.86;100546.94;4980469;28;20471;-77
2023/07/27 04:25:02;;;;;;;4.15;2.00;;;;;;;22.85;49.92;100544.28;4980453;28;20034;-76
2023/07/27 04:27:27;;;;;;;5.05;2.35;;;;;;;22.86;49.61;100535.31;4981217;28;20027;-72
2023/07/27 04:29:52;;;;;;;5.07;2.20;;;;;;;22.85;49.51;100537.16;4963893;28;20038;-74
2023/07/27 04:32:19;;;;;;;3.88;1.98;;;;;;;22.85;50.10;100529.19;4984788;28;20052;-70
2023/07/27 04:34:44;;;;;;;4.60;2.08;;;;;;;22.83;49.81;100521.38;4986463;28;20038;-72
2023/07/27 04:37:09;;;;;;;3.97;2.13;;;;;;;22.83;49.76;100526.69;4962865;28;20038;-72
2023/07/27 04:39:35;;;;;;;4.40;2.05;;;;;;;22.84;49.79;100527.50;4981097;28;20025;-72
2023/07/27 04:42:00;;;;;;;4.28;2.10;;;;;;;22.83;49.86;100518.72;4980538;28;20034;-73
2023/07/27 04:44:26;;;;;;;4.30;1.88;;;;;;;22.81;49.95;100515.41;4980680;28;20030;-75
2023/07/27 04:46:52;;;;;;;4.13;2.03;;;;;;;22.84;49.80;100508.91;4982500;28;20044;-72
2023/07/27 04:49:17;;;;;;;3.40;1.67;;;;;;;22.82;49.87;100517.03;4980536;28;20030;-73
2023/07/27 04:51:43;;;;;;;3.83;1.90;;;;;;;22.81;49.81;100509.22;4979704;28;20467;-75
2023/07/27 04:54:08;;;;;;;4.00;2.08;;;;;;;22.83;49.66;100508.09;4979628;28;20034;-72
2023/07/27 04:56:33;;;;;;;3.40;2.00;;;;;;;22.81;49.93;100498.59;4980135;28;20027;-74
2023/07/27 04:58:59;;;;;;;4.32;2.20;;;;;;;22.81;49.95;100510.09;4980806;28;20038;-73
2023/07/27 05:01:24;;;;;;;5.60;1.95;;;;;;;22.82;50.05;100506.41;4980489;28;21128;-74
2023/07/27 05:03:51;;;;;;;4.18;2.10;;;;;;;22.80;50.03;100499.63;4979794;28;20690;-73
2023/07/27 05:06:16;;;;;;;3.70;1.80;;;;;;;22.80;50.20;100499.63;4980207;28;20035;-73
2023/07/27 05:08:41;;;;;;;3.80;2.08;;;;;;;22.80;49.69;100486.34;4980406;28;20379;-73
2023/07/27 05:11:07;;;;;;;4.20;1.90;;;;;;;22.75;49.83;100480.69;4979668;28;20058;-73
2023/07/27 05:13:33;;;;;;;4.40;2.13;;;;;;;22.79;50.16;100482.00;4980902;28;20037;-72
2023/07/27 05:15:58;;;;;;;3.72;1.92;;;;;;;22.79;49.87;100480.16;4980451;28;20053;-74
2023/07/27 05:18:24;;;;;;;3.65;1.90;;;;;;;22.80;50.30;100473.06;4979797;28;20058;-73
2023/07/27 05:20:49;;;;;;;4.32;2.13;;;;;;;22.74;50.25;100461.25;4980130;28;20030;-73
2023/07/27 05:23:14;;;;;;;3.88;1.70;;;;;;;22.78;50.10;100467.91;4980139;28;20030;-77
2023/07/27 05:25:40;;;;;;;4.80;2.00;;;;;;;22.79;50.38;100463.41;4978940;28;20062;-74
2023/07/27 05:28:05;;;;;;;3.23;1.53;;;;;;;22.79;50.18;100455.44;4979630;28;20122;-75
2023/07/27 05:30:31;;;;;;;3.97;1.95;;;;;;;22.78;50.31;100459.94;4980334;28;20284;-73
2023/07/27 05:32:57;;;;;;;3.70;1.73;;;;;;;22.78;50.29;100457.28;4979223;28;20399;-75
2023/07/27 05:35:22;;;;;;;3.15;1.42;;;;;;;22.78;50.09;100445.81;4980097;28;20050;-73
2023/07/27 05:37:47;;;;;;;3.72;1.92;;;;;;;22.78;50.48;100449.31;4979556;28;20034;-73
2023/07/27 05:40:16;;;;;;;3.33;1.50;;;;;;;22.77;50.78;100452.94;4979043;28;20041;-73
2023/07/27 05:42:42;;;;;;;3.20;1.60;;;;;;;22.77;50.32;100455.59;4979906;28;20537;-73
2023/07/27 05:45:08;;;;;;;4.13;2.08;;;;;;;22.77;50.38;100447.63;4980273;28;20145;-75
2023/07/27 05:47:34;;;;;;;3.90;1.80;;;;;;;22.78;50.44;100448.47;4979699;28;20867;-72
2023/07/27 05:49:59;;;;;;;3.05;1.60;;;;;;;22.77;50.57;100444.16;4979957;28;20034;-73
2023/07/27 05:52:25;;;;;;;3.50;1.77;;;;;;;22.77;50.65;100438.84;4980707;28;20038;-72
2023/07/27 05:54:50;;;;;;;3.10;1.60;;;;;;;22.77;50.71;100446.81;4979226;28;20030;-72
2023/07/27 05:57:16;;;;;;;4.07;1.97;;;;;;;22.76;50.66;100437.16;4980607;28;20037;-72
2023/07/27 05:59:41;;;;;;;4.00;1.60;;;;;;;22.77;50.50;100433.53;4977953;28;20284;-74
2023/07/27 06:02:06;;;;;;;4.13;1.67;;;;;;;22.76;50.84;100435.34;4979494;28;20287;-73
2023/07/27 06:04:32;;;;;;;4.18;1.80;;;;;;;22.76;50.79;100435.34;4979815;28;20066;-73
2023/07/27 06:06:58;;;;;;;5.15;1.58;;;;;;;22.72;50.87;100422.56;4978718;28;20430;-72
2023/07/27 06:09:24;;;;;;;3.30;1.58;;;;;;;22.76;50.70;100431.84;4979334;28;20173;-74
2023/07/27 06:11:49;;;;;;;3.13;1.45;;;;;;;22.76;50.66;100429.22;4977961;28;20058;-75
2023/07/27 06:14:14;;;;;;;3.08;1.50;;;;;;;22.75;50.89;100425.72;4978336;28;20045;-74
2023/07/27 06:16:39;;;;;;;3.03;1.60;;;;;;;22.75;50.72;100425.72;4979365;28;20042;-77
2023/07/27 06:19:05;;;;;;;3.75;1.50;;;;;;;22.74;51.20;100424.06;4979730;28;20088;-74
2023/07/27 06:21:30;;;;;;;3.40;1.60;;;;;;;22.75;50.66;100416.94;4979322;28;20901;-74
2023/07/27 06:23:56;;;;;;;3.70;1.58;;;;;;;22.76;50.79;100421.22;4979276;28;20062;-74
2023/07/27 06:26:21;;;;;;;3.00;1.50;;;;;;;22.74;50.96;100413.44;4979599;28;20033;-72
2023/07/27 06:28:46;;;;;;;3.35;1.55;;;;;;;22.74;50.97;100416.09;4978749;28;20065;-72
2023/07/27 06:31:12;;;;;;;2.97;1.50;;;;;;;22.76;50.79;100413.25;4980434;28;20042;-75
2023/07/27 06:33:37;;;;;;;4.65;1.63;;;;;;;22.75;51.26;100407.13;4978921;28;20049;-73
2023/07/27 06:36:03;;;;;;;3.60;1.50;;;;;;;22.77;51.56;100410.44;4979323;28;20032;-77
2023/07/27 06:38:28;;;;;;;3.47;1.67;;;;;;;22.77;51.02;100401.66;4979525;28;20035;-75
2023/07/27 06:40:53;;;;;;;4.00;1.48;;;;;;;22.78;51.34;100406.81;4980920;28;20050;-76
2023/07/27 06:43:18;;;;;;;3.53;1.30;;;;;;;22.79;51.36;100412.94;4981797;28;20094;-72
2023/07/27 06:45:44;;;;;;;2.90;1.40;;;;;;;22.78;51.54;100406.81;4981601;28;20582;-73
2023/07/27 06:48:09;;;;;;;4.10;1.60;;;;;;;22.78;51.44;100409.47;4983081;28;20038;-73
2023/07/27 06:50:35;;;;;;;3.95;1.55;;;;;;;22.78;51.17;100413.91;4981764;28;20052;-73
2023/07/27 06:53:00;;;;;;;3.47;1.50;;;;;;;22.78;51.53;100409.47;4982533;28;20042;-74
2023/07/27 06:55:26;;;;;;;3.45;1.58;;;;;;;22.78;51.68;100408.59;4982502;28;20069;-75
2023/07/27 06:57:55;;;;;;;3.20;1.23;;;;;;;22.77;51.65;100410.44;4981784;28;20077;-74
2023/07/27 07:00:21;;;;;;;2.78;1.30;;;;;;;22.77;51.57;100404.31;4982784;28;20038;-74
2023/07/27 07:02:46;;;;;;;3.70;1.70;;;;;;;22.77;51.69;100402.47;4982560;28;20491;-76
2023/07/27 07:05:11;;;;;;;2.83;1.50;;;;;;;22.78;52.08;100403.28;4981857;28;20491;-73
2023/07/27 07:07:38;;;;;;;3.30;1.37;;;;;;;22.77;51.72;100406.97;4981416;28;20089;-74
2023/07/27 07:10:05;;;;;;;4.40;1.40;;;;;;;22.76;52.36;100408.78;4982040;28;20700;-74
2023/07/27 07:12:30;;;;;;;3.88;1.30;;;;;;;22.76;52.10;100411.44;4982997;28;20039;-74
2023/07/27 07:14:55;;;;;;;4.25;1.30;;;;;;;22.75;51.91;100407.13;4983178;28;20419;-75
2023/07/27 07:17:21;;;;;;;5.10;1.50;;;;;;;22.76;52.23;100413.25;4982647;28;20034;-74
2023/07/27 07:19:47;;;;;;;3.03;1.40;;;;;;;22.76;52.34;100413.25;4982770;28;20039;-73
2023/07/27 07:22:12;;;;;;;2.35;1.15;;;;;;;22.75;52.63;100411.63;4982572;28;20036;-72
2023/07/27 07:24:37;;;;;;;3.78;1.30;;;;;;;22.74;52.23;100415.25;4982208;28;20045;-73
2023/07/27 07:27:03;;;;;;;4.32;1.30;;;;;;;22.73;52.39;100410.94;4982736;28;20045;-73
2023/07/27 07:29:28;;;;;;;2.65;1.20;;;;;;;22.75;52.41;100414.28;4982635;28;20049;-74
2023/07/27 07:31:54;;;;;;;5.10;1.50;;;;;;;22.75;52.75;100411.63;4981337;28;20530;-73
2023/07/27 07:34:19;;;;;;;4.57;1.23;;;;;;;22.76;52.56;100406.13;4981883;28;20038;-74
2023/07/27 07:36:44;;;;;;;3.42;1.25;;;;;;;22.77;52.80;100401.66;4981262;28;20073;-73
2023/07/27 07:39:09;;;;;;;3.00;1.35;;;;;;;22.77;52.88;100396.34;4981010;28;20388;-73
2023/07/27 07:41:35;;;;;;;4.22;1.15;;;;;;;22.76;52.92;100392.84;4982193;28;20038;-74
2023/07/27 07:44:00;;;;;;;3.38;1.20;;;;;;;22.77;53.09;100391.84;4981421;28;20395;-73
2023/07/27 07:46:25;;;;;;;2.97;1.23;;;;;;;22.75;53.21;100393.84;4981269;28;20034;-73
2023/07/27 07:48:51;;;;;;;3.63;1.33;;;;;;;22.78;53.55;100392.66;4981226;28;20298;-74
2023/07/27 07:51:16;;;;;;;5.20;1.33;;;;;;;22.76;53.28;100392.00;4981716;28;20038;-73
2023/07/27 07:53:41;;;;;;;4.15;1.20;;;;;;;22.76;53.44;100389.34;4980492;28;20033;-74
2023/07/27 07:56:16;;;;;;;4.50;1.40;;;;;;;22.75;53.49;100385.06;4981866;28;20558;-72
2023/07/27 07:58:44;;;;;;;4.45;1.48;;;;;;;22.78;53.95;100392.66;4981244;28;20314;-72
2023/07/27 08:01:09;;;;;;;3.50;1.20;;;;;;;22.78;53.79;100395.31;4964161;28;20650;-73
2023/07/27 08:03:35;;;;;;;5.00;1.25;;;;;;;22.77;54.09;100385.72;4978559;28;20742;-73
2023/07/27 08:06:00;;;;;;;3.70;1.52;;;;;;;22.75;54.24;100387.72;4979991;28;20072;-74
2023/07/27 08:08:25;;;;;;;2.72;1.20;;;;;;;22.73;54.13;100387.88;4980780;28;20092;-74
2023/07/27 08:10:51;;;;;;;6.13;1.40;;;;;;;22.69;54.61;100383.06;4981188;28;20539;-73
2023/07/27 08:13:16;;;;;;;3.47;2.28;;;;;;;22.64;55.10;100384.38;4978835;28;20045;-77
2023/07/27 08:15:52;;;;;;;5.50;1.33;;;;;;;22.60;54.89;100382.22;4980450;28;20125;-76
2023/07/27 08:18:17;;;;;;;3.40;1.30;;;;;;;22.61;54.93;100381.22;4980384;28;20108;-76
2023/07/27 08:20:42;;;;;;;2.88;1.20;;;;;;;22.59;55.16;100375.28;4979453;28;20770;-77
2023/07/27 08:23:08;;;;;;;5.07;1.10;;;;;;;22.58;55.59;100379.72;4980962;28;20415;-76
2023/07/27 08:25:37;;;;;;;4.82;1.20;;;;;;;22.59;54.99;100383.22;4980757;28;20544;-74
2023/07/27 08:28:02;;;;;;;2.88;1.20;;;;;;;22.64;54.49;100378.25;4980282;28;20030;-72
2023/07/27 08:30:28;;;;;;;4.63;1.30;;;;;;;22.62;54.83;100372.25;4980743;28;20034;-72
2023/07/27 08:32:53;;;;;;;4.32;1.30;;;;;;;22.66;55.03;100378.91;4979328;28;20030;-74
2023/07/27 08:35:18;;;;;;;3.20;1.40;;;;;;;22.66;54.97;100372.78;4979681;28;20033;-71
2023/07/27 08:37:44;;;;;;;2.20;1.02;;;;;;;22.63;54.48;100377.41;4979709;28;20781;-71
2023/07/27 08:40:09;;;;;;;3.40;1.27;;;;;;;22.64;55.02;100373.75;4980693;28;20042;-72
2023/07/27 08:42:36;;;;;;;2.63;1.23;;;;;;;22.65;55.02;100363.97;4979681;28;20202;-75
2023/07/27 08:45:01;;;;;;;8.23;1.35;;;;;;;22.64;55.41;100370.28;4979269;28;20112;-71
2023/07/27 08:47:28;;;;;;;4.18;1.10;;;;;;;22.66;55.22;100372.78;4979535;28;21093;-71
2023/07/27 08:49:54;;;;;;;3.13;1.00;;;;;;;22.64;55.39;100370.28;4980631;28;20047;-74
2023/07/27 08:52:23;;;;;;;3.55;1.20;;;;;;;22.60;55.28;100377.72;4983004;28;20689;-75
2023/07/27 08:54:48;;;;;;;3.75;1.30;;;;;;;22.61;55.52;100375.91;4980969;28;20034;-72
2023/07/27 08:57:14;;;;;;;5.85;1.63;;;;;;;22.60;55.31;100377.72;4980217;28;20707;-78
2023/07/27 08:59:40;;;;;;;3.30;1.20;;;;;;;22.58;55.80;100370.94;4984499;28;20415;-77
2023/07/27 09:02:06;;;;;;;4.25;0.90;;;;;;;22.57;55.64;100372.78;4986594;28;20129;-79
2023/07/27 09:04:31;;;;;;;4.00;1.05;;;;;;;22.57;55.70;100377.22;4979729;28;20141;-74
2023/07/27 09:07:06;;;;;;;2.97;1.00;;;;;;;22.56;56.08;100384.38;4981466;28;20030;-75
2023/07/27 09:09:32;;;;;;;4.07;1.10;;;;;;;22.57;56.00;100378.09;4979800;28;20030;-76
2023/07/27 09:12:03;;;;;;;3.95;1.05;;;;;;;22.57;56.05;100370.13;4981617;28;20491;-78
2023/07/27 09:14:38;;;;;;;4.25;0.90;;;;;;;22.57;56.13;100369.28;4981609;28;20038;-74
2023/07/27 09:17:04;;;;;;;4.13;0.85;;;;;;;22.61;55.90;100375.91;4978439;28;20072;-77
2023/07/27 09:19:35;;;;;;;2.70;0.93;;;;;;;22.62;55.94;100370.44;4979760;28;20046;-76
2023/07/27 09:22:02;;;;;;;3.35;0.98;;;;;;;22.64;55.76;100370.28;4981070;28;20078;-71
2023/07/27 09:24:35;;;;;;;2.75;1.02;;;;;;;22.62;55.93;100361.63;4981081;28;20053;-75
2023/07/27 09:27:02;;;;;;;3.58;1.13;;;;;;;22.66;56.07;100356.84;4980894;28;20042;-71
2023/07/27 09:29:28;;;;;;;2.22;1.10;;;;;;;22.66;55.84;100370.13;4978784;28;20042;-71
2023/07/27 09:32:00;;;;;;;4.18;0.90;;;;;;;22.64;55.91;100367.63;4978541;28;20450;-74
2023/07/27 09:34:29;;;;;;;3.35;0.95;;;;;;;22.63;56.03;100368.63;4980248;28;20042;-72
2023/07/27 09:36:56;;;;;;;2.83;0.98;;;;;;;22.63;56.03;100361.47;4979543;28;20088;-73
2023/07/27 09:39:22;;;;;;;1.90;1.10;;;;;;;22.64;56.25;100367.63;4980486;28;20030;-73
2023/07/27 09:41:47;;;;;;;3.35;1.05;;;;;;;22.65;56.36;100366.59;4980006;28;20039;-69
2023/07/27 09:44:17;;;;;;;6.18;1.40;;;;;;;22.65;56.48;100366.59;4981983;28;20183;-76
2023/07/27 09:46:47;;;;;;;3.92;1.00;;;;;;;22.63;56.31;100366.78;4964519;28;20470;-79
2023/07/27 09:49:14;;;;;;;2.78;1.25;;;;;;;22.65;56.10;100366.59;4981382;28;20053;-75
2023/07/27 09:51:40;;;;;;;4.78;0.93;;;;;;;22.70;56.20;100364.31;4979790;28;20034;-70
2023/07/27 09:54:06;;;;;;;2.38;0.80;;;;;;;22.72;56.24;100366.81;4979294;28;20275;-71
2023/07/27 09:56:32;;;;;;;9.55;0.90;;;;;;;22.73;56.56;100363.97;4979468;28;20030;-74
2023/07/27 09:58:59;;;;;;;2.15;0.80;;;;;;;22.72;56.50;100364.16;4963343;28;20206;-75
2023/07/27 10:01:25;;;;;;;3.70;1.00;;;;;;;22.74;56.95;100367.44;4979467;28;20467;-72
2023/07/27 10:03:50;;;;;;;3.13;1.05;;;;;;;22.75;56.94;100369.13;4979244;28;20038;-72
2023/07/27 10:06:17;;;;;;;2.72;1.00;;;;;;;22.74;56.58;100376.25;4978654;28;20030;-78
2023/07/27 10:08:45;;;;;;;2.58;0.90;;;;;;;22.74;56.70;100364.78;4979176;28;20030;-75
2023/07/27 10:11:11;;;;;;;3.85;1.00;;;;;;;22.76;56.89;100374.25;4961334;28;20081;-75
2023/07/27 10:13:41;;;;;;;3.17;0.95;;;;;;;22.77;56.66;100365.28;4978485;28;20042;-76
2023/07/27 10:16:09;;;;;;;5.00;1.00;;;;;;;22.79;56.91;100368.59;4979691;28;20229;-74
2023/07/27 10:18:52;;;;;;;4.05;0.88;;;;;;;22.79;56.38;100368.59;4983420;28;20030;-76
2023/07/27 10:21:20;;;;;;;3.20;0.90;;;;;;;22.79;56.67;100373.09;4986612;28;20065;-75
2023/07/27 10:23:54;;;;;;;4.88;0.93;;;;;;;22.78;56.80;100358.13;4982709;28;20129;-74
2023/07/27 10:26:21;;;;;;;2.30;0.70;;;;;;;22.79;56.99;100365.94;4983136;28;20050;-74
2023/07/27 10:28:48;;;;;;;1.60;0.77;;;;;;;22.84;57.05;100365.44;4965075;28;20453;-79
2023/07/27 10:31:14;;;;;;;5.35;1.08;;;;;;;22.84;56.63;100373.41;4983294;28;20476;-70
2023/07/27 10:34:02;;;;;;;1.88;0.82;;;;;;;22.79;56.93;100373.09;4983211;28;20101;-73
2023/07/27 10:36:57;;;;;;;3.33;0.70;;;;;;;22.82;57.40;100370.09;4983452;28;20454;-73
2023/07/27 10:40:03;;;;;;;5.20;1.10;;;;;;;22.83;56.81;100369.94;4982180;28;20061;-69
2023/07/27 10:42:33;;;;;;;4.88;1.27;;;;;;;23.01;56.54;100372.41;4980764;28;20048;-71
2023/07/27 10:44:59;;;;;;;1.35;0.70;;;;;;;23.11;55.90;100374.91;4982070;28;20052;-70
2023/07/27 10:47:25;;;;;;;4.55;0.88;;;;;;;23.14;55.49;100371.09;4983594;28;20507;-72
2023/07/27 10:49:55;;;;;;;2.75;0.80;;;;;;;23.15;55.63;100378.91;4982710;28;20503;-71
2023/07/27 10:52:22;;;;;;;3.70;0.90;;;;;;;23.16;55.46;100372.59;4983548;28;20038;-72
2023/07/27 10:54:49;;;;;;;4.10;0.95;;;;;;;23.16;55.85;100377.91;4983730;28;20034;-75
2023/07/27 10:57:16;;;;;;;6.88;1.35;;;;;;;23.16;55.69;100377.06;4982723;28;20494;-77
2023/07/27 10:59:47;;;;;;;8.02;0.82;;;;;;;23.16;56.36;100371.75;4982372;28;20428;-77
2023/07/27 11:02:36;;;;;;;3.75;0.90;;;;;;;23.18;56.34;100372.41;4983262;28;20144;-79
2023/07/27 11:05:08;;;;;;;5.45;0.93;;;;;;;23.18;56.31;100375.91;4983432;28;20278;-79
2023/07/27 11:07:39;;;;;;;4.53;1.02;;;;;;;23.19;56.43;100376.72;4983283;28;20026;-77
2023/07/27 11:10:11;;;;;;;3.88;1.45;;;;;;;23.20;56.04;100375.72;4965730;28;20038;-76
2023/07/27 11:12:57;;;;;;;2.65;0.90;;;;;;;23.15;56.43;100370.09;4983912;28;20064;-77
2023/07/27 11:15:28;;;;;;;3.08;0.82;;;;;;;23.17;56.53;100366.25;4982205;28;20075;-75
2023/07/27 11:17:55;;;;;;;3.35;0.95;;;;;;;23.20;56.33;100364.28;4983164;28;20030;-74
2023/07/27 11:20:23;;;;;;;3.55;0.82;;;;;;;23.18;56.67;100359.94;4965592;28;20030;-75
2023/07/27 11:22:50;;;;;;;4.72;0.80;;;;;;;23.20;56.37;100372.25;4965396;28;20042;-74
2023/07/27 11:25:15;;;;;;;5.93;0.70;;;;;;;23.20;56.38;100351.81;4982415;28;20404;-74